sensor_id;sensor_type;location;lat;lon;timestamp;pressure;altitude;pressure_sealevel;temperature;humidity
63447;BME280;49577;49.872;6.190;2022-09-17T00:00:57;99289.02;;;8.21;75.02
63447;BME280;49577;49.872;6.190;2022-09-17T00:03:24;99292.59;;;8.20;75.03
63447;BME280;49577;49.872;6.190;2022-09-17T00:05:57;99291.51;;;8.17;75.04
63447;BME280;49577;49.872;6.190;2022-09-17T00:08:23;99295.10;;;8.15;75.12
63447;BME280;49577;49.872;6.190;2022-09-17T00:10:48;99303.72;;;8.17;75.57
63447;BME280;49577;49.872;6.190;2022-09-17T00:13:14;99303.35;;;8.17;75.53
63447;BME280;49577;49.872;6.190;2022-09-17T00:15:44;99305.95;;;8.18;75.51
63447;BME280;49577;49.872;6.190;2022-09-17T00:18:10;99306.41;;;8.15;75.66
63447;BME280;49577;49.872;6.190;2022-09-17T00:20:44;99309.87;;;8.13;76.00
63447;BME280;49577;49.872;6.190;2022-09-17T00:23:11;99308.48;;;8.09;75.97
63447;BME280;49577;49.872;6.190;2022-09-17T00:25:38;99308.10;;;8.10;76.23
63447;BME280;49577;49.872;6.190;2022-09-17T00:28:03;99306.59;;;8.15;76.29
63447;BME280;49577;49.872;6.190;2022-09-17T00:30:29;99306.89;;;8.19;75.96
63447;BME280;49577;49.872;6.190;2022-09-17T00:32:54;99306.92;;;8.22;75.96
63447;BME280;49577;49.872;6.190;2022-09-17T00:35:26;99309.27;;;8.23;75.92
63447;BME280;49577;49.872;6.190;2022-09-17T00:37:52;99308.25;;;8.23;75.94
63447;BME280;49577;49.872;6.190;2022-09-17T00:40:18;99310.30;;;8.20;75.98
63447;BME280;49577;49.872;6.190;2022-09-17T00:42:44;99311.58;;;8.19;76.04
63447;BME280;49577;49.872;6.190;2022-09-17T00:45:10;99310.63;;;8.18;76.09
63447;BME280;49577;49.872;6.190;2022-09-17T00:47:45;99309.80;;;8.17;75.98
63447;BME280;49577;49.872;6.190;2022-09-17T00:50:17;99311.17;;;8.18;76.00
63447;BME280;49577;49.872;6.190;2022-09-17T00:52:49;99311.09;;;8.19;76.16
63447;BME280;49577;49.872;6.190;2022-09-17T00:57:42;99310.80;;;8.24;76.28
63447;BME280;49577;49.872;6.190;2022-09-17T01:00:11;99317.16;;;8.28;76.40
63447;BME280;49577;49.872;6.190;2022-09-17T01:02:37;99320.59;;;8.35;76.57
63447;BME280;49577;49.872;6.190;2022-09-17T01:05:03;99320.40;;;8.42;76.61
63447;BME280;49577;49.872;6.190;2022-09-17T01:07:56;99321.55;;;8.46;76.34
63447;BME280;49577;49.872;6.190;2022-09-17T01:18:49;99292.65;;;8.30;76.24
63447;BME280;49577;49.872;6.190;2022-09-17T01:21:33;99292.28;;;8.25;76.40
63447;BME280;49577;49.872;6.190;2022-09-17T01:32:29;99294.98;;;8.08;76.92
63447;BME280;49577;49.872;6.190;2022-09-17T01:38:26;99294.46;;;7.99;76.97
63447;BME280;49577;49.872;6.190;2022-09-17T01:41:11;99298.84;;;7.93;77.25
63447;BME280;49577;49.872;6.190;2022-09-17T01:43:42;99302.84;;;7.90;77.39
63447;BME280;49577;49.872;6.190;2022-09-17T01:46:15;99301.04;;;7.88;77.65
63447;BME280;49577;49.872;6.190;2022-09-17T01:48:46;99299.58;;;7.89;77.78
63447;BME280;49577;49.872;6.190;2022-09-17T01:51:18;99306.36;;;7.89;77.68
63447;BME280;49577;49.872;6.190;2022-09-17T01:56:18;99322.77;;;7.97;78.18
63447;BME280;49577;49.872;6.190;2022-09-17T01:58:52;99319.17;;;8.02;78.27
63447;BME280;49577;49.872;6.190;2022-09-17T02:01:21;99319.95;;;8.10;78.26
63447;BME280;49577;49.872;6.190;2022-09-17T02:04:16;99318.67;;;8.17;78.05
63447;BME280;49577;49.872;6.190;2022-09-17T02:06:43;99317.01;;;8.22;78.21
63447;BME280;49577;49.872;6.190;2022-09-17T02:09:14;99322.21;;;8.25;78.05
63447;BME280;49577;49.872;6.190;2022-09-17T02:11:42;99319.86;;;8.26;77.89
63447;BME280;49577;49.872;6.190;2022-09-17T02:14:21;99318.15;;;8.29;77.80
63447;BME280;49577;49.872;6.190;2022-09-17T02:16:55;99322.25;;;8.30;77.71
63447;BME280;49577;49.872;6.190;2022-09-17T02:19:28;99318.79;;;8.33;77.69
63447;BME280;49577;49.872;6.190;2022-09-17T02:24:24;99315.88;;;8.39;77.43
63447;BME280;49577;49.872;6.190;2022-09-17T02:29:44;99314.89;;;8.44;77.07
63447;BME280;49577;49.872;6.190;2022-09-17T02:32:11;99317.16;;;8.44;77.19
63447;BME280;49577;49.872;6.190;2022-09-17T02:34:37;99321.96;;;8.45;77.16
63447;BME280;49577;49.872;6.190;2022-09-17T02:37:04;99325.10;;;8.48;77.09
63447;BME280;49577;49.872;6.190;2022-09-17T02:39:30;99323.71;;;8.50;77.26
63447;BME280;49577;49.872;6.190;2022-09-17T02:42:32;99323.59;;;8.53;77.17
63447;BME280;49577;49.872;6.190;2022-09-17T02:45:17;99320.98;;;8.58;77.11
63447;BME280;49577;49.872;6.190;2022-09-17T02:53:53;99333.81;;;8.74;77.00
63447;BME280;49577;49.872;6.190;2022-09-17T02:59:14;99329.63;;;8.85;77.10
63447;BME280;49577;49.872;6.190;2022-09-17T03:01:49;99326.52;;;8.91;77.02
63447;BME280;49577;49.872;6.190;2022-09-17T03:04:16;99327.39;;;8.97;76.97
63447;BME280;49577;49.872;6.190;2022-09-17T03:06:45;99327.96;;;9.02;76.96
63447;BME280;49577;49.872;6.190;2022-09-17T03:09:12;99330.66;;;9.06;76.81
63447;BME280;49577;49.872;6.190;2022-09-17T03:11:39;99331.84;;;9.10;76.70
63447;BME280;49577;49.872;6.190;2022-09-17T03:14:04;99332.29;;;9.14;76.70
63447;BME280;49577;49.872;6.190;2022-09-17T03:16:30;99330.67;;;9.18;76.68
63447;BME280;49577;49.872;6.190;2022-09-17T03:18:55;99332.55;;;9.21;76.69
63447;BME280;49577;49.872;6.190;2022-09-17T03:21:20;99333.84;;;9.25;76.49
63447;BME280;49577;49.872;6.190;2022-09-17T03:23:46;99337.27;;;9.29;76.53
63447;BME280;49577;49.872;6.190;2022-09-17T03:26:11;99338.69;;;9.34;76.51
63447;BME280;49577;49.872;6.190;2022-09-17T03:28:36;99333.55;;;9.39;76.36
63447;BME280;49577;49.872;6.190;2022-09-17T03:31:02;99332.87;;;9.44;76.24
63447;BME280;49577;49.872;6.190;2022-09-17T03:33:28;99333.00;;;9.48;76.28
63447;BME280;49577;49.872;6.190;2022-09-17T03:35:53;99330.95;;;9.50;76.13
63447;BME280;49577;49.872;6.190;2022-09-17T03:38:19;99329.59;;;9.52;76.01
63447;BME280;49577;49.872;6.190;2022-09-17T03:40:55;99327.05;;;9.54;75.95
63447;BME280;49577;49.872;6.190;2022-09-17T03:43:21;99328.68;;;9.55;76.04
63447;BME280;49577;49.872;6.190;2022-09-17T03:45:46;99330.52;;;9.57;75.97
63447;BME280;49577;49.872;6.190;2022-09-17T03:48:13;99336.60;;;9.59;75.96
63447;BME280;49577;49.872;6.190;2022-09-17T03:50:38;99339.60;;;9.62;75.81
63447;BME280;49577;49.872;6.190;2022-09-17T03:53:03;99343.23;;;9.65;75.89
63447;BME280;49577;49.872;6.190;2022-09-17T03:55:29;99344.35;;;9.69;75.71
63447;BME280;49577;49.872;6.190;2022-09-17T03:57:54;99347.16;;;9.72;75.91
63447;BME280;49577;49.872;6.190;2022-09-17T04:00:20;99350.39;;;9.73;75.59
63447;BME280;49577;49.872;6.190;2022-09-17T04:02:46;99353.57;;;9.75;75.41
63447;BME280;49577;49.872;6.190;2022-09-17T04:05:11;99348.27;;;9.76;75.41
63447;BME280;49577;49.872;6.190;2022-09-17T04:07:39;99343.29;;;9.78;75.55
63447;BME280;49577;49.872;6.190;2022-09-17T04:10:05;99349.08;;;9.80;75.34
63447;BME280;49577;49.872;6.190;2022-09-17T04:12:31;99352.60;;;9.82;75.37
63447;BME280;49577;49.872;6.190;2022-09-17T04:14:56;99350.73;;;9.84;75.49
63447;BME280;49577;49.872;6.190;2022-09-17T04:17:22;99354.09;;;9.86;75.43
63447;BME280;49577;49.872;6.190;2022-09-17T04:19:47;99350.92;;;9.86;75.48
63447;BME280;49577;49.872;6.190;2022-09-17T04:22:12;99356.23;;;9.88;75.62
63447;BME280;49577;49.872;6.190;2022-09-17T04:24:38;99356.14;;;9.90;75.44
63447;BME280;49577;49.872;6.190;2022-09-17T04:27:03;99354.01;;;9.90;75.41
63447;BME280;49577;49.872;6.190;2022-09-17T04:29:28;99353.91;;;9.89;75.25
63447;BME280;49577;49.872;6.190;2022-09-17T04:31:54;99357.59;;;9.89;75.08
63447;BME280;49577;49.872;6.190;2022-09-17T04:34:19;99360.65;;;9.87;75.13
63447;BME280;49577;49.872;6.190;2022-09-17T04:36:44;99361.54;;;9.87;75.26
63447;BME280;49577;49.872;6.190;2022-09-17T04:39:10;99359.12;;;9.87;75.06
63447;BME280;49577;49.872;6.190;2022-09-17T04:41:35;99362.02;;;9.85;74.92
63447;BME280;49577;49.872;6.190;2022-09-17T04:44:01;99363.34;;;9.81;75.21
63447;BME280;49577;49.872;6.190;2022-09-17T04:46:26;99365.22;;;9.73;75.19
63447;BME280;49577;49.872;6.190;2022-09-17T04:48:51;99363.70;;;9.67;75.40
63447;BME280;49577;49.872;6.190;2022-09-17T04:51:17;99362.37;;;9.63;75.37
63447;BME280;49577;49.872;6.190;2022-09-17T04:53:42;99367.69;;;9.61;75.37
63447;BME280;49577;49.872;6.190;2022-09-17T04:56:07;99367.60;;;9.63;75.59
63447;BME280;49577;49.872;6.190;2022-09-17T04:58:33;99366.92;;;9.66;75.58
63447;BME280;49577;49.872;6.190;2022-09-17T05:00:58;99369.79;;;9.70;75.85
63447;BME280;49577;49.872;6.190;2022-09-17T05:03:24;99369.29;;;9.72;75.97
63447;BME280;49577;49.872;6.190;2022-09-17T05:05:49;99370.30;;;9.73;75.96
63447;BME280;49577;49.872;6.190;2022-09-17T05:08:14;99374.00;;;9.72;76.10
63447;BME280;49577;49.872;6.190;2022-09-17T05:10:40;99376.98;;;9.69;76.23
63447;BME280;49577;49.872;6.190;2022-09-17T05:13:05;99377.92;;;9.68;76.38
63447;BME280;49577;49.872;6.190;2022-09-17T05:15:30;99379.52;;;9.68;76.42
63447;BME280;49577;49.872;6.190;2022-09-17T05:17:56;99384.66;;;9.66;76.40
63447;BME280;49577;49.872;6.190;2022-09-17T05:20:21;99386.88;;;9.64;76.38
63447;BME280;49577;49.872;6.190;2022-09-17T05:22:49;99390.09;;;9.63;76.44
63447;BME280;49577;49.872;6.190;2022-09-17T05:25:16;99396.89;;;9.60;76.28
63447;BME280;49577;49.872;6.190;2022-09-17T05:27:42;99399.95;;;9.58;76.65
63447;BME280;49577;49.872;6.190;2022-09-17T05:30:09;99396.95;;;9.59;76.63
63447;BME280;49577;49.872;6.190;2022-09-17T05:32:35;99404.35;;;9.61;76.47
63447;BME280;49577;49.872;6.190;2022-09-17T05:35:02;99401.06;;;9.63;76.42
63447;BME280;49577;49.872;6.190;2022-09-17T05:37:27;99402.64;;;9.69;76.39
63447;BME280;49577;49.872;6.190;2022-09-17T05:39:53;99400.90;;;9.74;76.32
63447;BME280;49577;49.872;6.190;2022-09-17T05:42:18;99401.92;;;9.80;76.28
63447;BME280;49577;49.872;6.190;2022-09-17T05:44:43;99401.82;;;9.84;76.33
63447;BME280;49577;49.872;6.190;2022-09-17T05:47:09;99403.41;;;9.87;76.32
63447;BME280;49577;49.872;6.190;2022-09-17T05:49:34;99397.42;;;9.94;76.19
63447;BME280;49577;49.872;6.190;2022-09-17T05:51:59;99401.47;;;10.17;76.19
63447;BME280;49577;49.872;6.190;2022-09-17T05:54:25;99405.67;;;10.63;75.85
63447;BME280;49577;49.872;6.190;2022-09-17T05:56:54;99408.02;;;11.37;75.00
63447;BME280;49577;49.872;6.190;2022-09-17T05:59:19;99408.05;;;11.89;73.46
63447;BME280;49577;49.872;6.190;2022-09-17T06:01:45;99410.45;;;12.36;72.75
63447;BME280;49577;49.872;6.190;2022-09-17T06:04:11;99419.16;;;13.05;71.40
63447;BME280;49577;49.872;6.190;2022-09-17T06:06:37;99417.90;;;13.40;69.79
63447;BME280;49577;49.872;6.190;2022-09-17T06:09:04;99414.54;;;13.11;68.89
63447;BME280;49577;49.872;6.190;2022-09-17T06:11:29;99411.44;;;12.82;68.49
63447;BME280;49577;49.872;6.190;2022-09-17T06:13:54;99413.14;;;12.78;69.05
63447;BME280;49577;49.872;6.190;2022-09-17T06:16:21;99420.31;;;13.67;68.58
63447;BME280;49577;49.872;6.190;2022-09-17T06:18:48;99425.69;;;15.01;66.37
63447;BME280;49577;49.872;6.190;2022-09-17T06:21:15;99421.38;;;15.86;64.26
63447;BME280;49577;49.872;6.190;2022-09-17T06:23:44;99419.91;;;16.19;62.38
63447;BME280;49577;49.872;6.190;2022-09-17T06:26:10;99418.66;;;15.93;61.28
63447;BME280;49577;49.872;6.190;2022-09-17T06:28:36;99420.63;;;16.05;60.79
63447;BME280;49577;49.872;6.190;2022-09-17T06:31:05;99421.38;;;16.91;59.09
63447;BME280;49577;49.872;6.190;2022-09-17T06:33:31;99423.50;;;17.83;57.45
63447;BME280;49577;49.872;6.190;2022-09-17T06:35:58;99426.41;;;18.73;55.62
63447;BME280;49577;49.872;6.190;2022-09-17T06:38:26;99424.58;;;19.52;53.42
63447;BME280;49577;49.872;6.190;2022-09-17T06:40:51;99421.65;;;20.18;51.59
63447;BME280;49577;49.872;6.190;2022-09-17T06:43:17;99420.91;;;20.73;49.70
63447;BME280;49577;49.872;6.190;2022-09-17T06:45:42;99415.05;;;21.30;48.67
63447;BME280;49577;49.872;6.190;2022-09-17T06:48:08;99413.24;;;21.75;47.05
63447;BME280;49577;49.872;6.190;2022-09-17T06:50:33;99416.88;;;21.91;46.47
63447;BME280;49577;49.872;6.190;2022-09-17T06:52:58;99415.56;;;22.03;45.43
63447;BME280;49577;49.872;6.190;2022-09-17T06:55:24;99421.85;;;21.74;44.78
63447;BME280;49577;49.872;6.190;2022-09-17T06:57:49;99422.36;;;21.63;44.05
63447;BME280;49577;49.872;6.190;2022-09-17T07:00:15;99420.77;;;21.33;44.61
63447;BME280;49577;49.872;6.190;2022-09-17T07:02:40;99426.75;;;21.73;44.13
63447;BME280;49577;49.872;6.190;2022-09-17T07:05:06;99424.98;;;22.16;42.80
63447;BME280;49577;49.872;6.190;2022-09-17T07:07:32;99425.92;;;22.82;42.12
63447;BME280;49577;49.872;6.190;2022-09-17T07:09:59;99432.03;;;23.21;41.26
63447;BME280;49577;49.872;6.190;2022-09-17T07:12:24;99430.46;;;22.41;40.92
63447;BME280;49577;49.872;6.190;2022-09-17T07:14:49;99438.96;;;21.27;42.20
63447;BME280;49577;49.872;6.190;2022-09-17T07:17:15;99441.55;;;20.38;42.92
63447;BME280;49577;49.872;6.190;2022-09-17T07:19:40;99438.33;;;19.51;43.92
63447;BME280;49577;49.872;6.190;2022-09-17T07:22:06;99442.34;;;18.89;45.13
63447;BME280;49577;49.872;6.190;2022-09-17T07:24:32;99439.90;;;18.55;46.13
63447;BME280;49577;49.872;6.190;2022-09-17T07:26:57;99441.23;;;18.98;46.25
63447;BME280;49577;49.872;6.190;2022-09-17T07:29:22;99441.58;;;18.86;46.47
63447;BME280;49577;49.872;6.190;2022-09-17T07:31:50;99446.73;;;18.44;47.06
63447;BME280;49577;49.872;6.190;2022-09-17T07:34:16;99452.85;;;18.16;47.47
63447;BME280;49577;49.872;6.190;2022-09-17T07:36:42;99454.16;;;18.14;47.70
63447;BME280;49577;49.872;6.190;2022-09-17T07:39:08;99456.64;;;18.48;48.34
63447;BME280;49577;49.872;6.190;2022-09-17T07:41:34;99458.81;;;18.49;48.60
63447;BME280;49577;49.872;6.190;2022-09-17T07:44:00;99460.69;;;18.17;49.20
63447;BME280;49577;49.872;6.190;2022-09-17T07:46:26;99461.71;;;18.28;49.49
63447;BME280;49577;49.872;6.190;2022-09-17T07:48:51;99455.00;;;18.30;49.44
63447;BME280;49577;49.872;6.190;2022-09-17T07:51:26;99452.71;;;18.41;49.46
63447;BME280;49577;49.872;6.190;2022-09-17T07:53:56;99443.76;;;18.30;49.35
63447;BME280;49577;49.872;6.190;2022-09-17T07:56:26;99449.61;;;18.27;49.08
63447;BME280;49577;49.872;6.190;2022-09-17T07:58:52;99451.53;;;18.19;49.38
63447;BME280;49577;49.872;6.190;2022-09-17T08:01:18;99450.83;;;18.08;49.11
63447;BME280;49577;49.872;6.190;2022-09-17T08:03:49;99450.23;;;18.16;49.25
63447;BME280;49577;49.872;6.190;2022-09-17T08:06:18;99453.36;;;18.20;49.36
63447;BME280;49577;49.872;6.190;2022-09-17T08:08:44;99462.54;;;18.06;49.55
63447;BME280;49577;49.872;6.190;2022-09-17T08:11:16;99465.81;;;17.84;49.85
63447;BME280;49577;49.872;6.190;2022-09-17T08:13:42;99466.25;;;17.55;49.55
63447;BME280;49577;49.872;6.190;2022-09-17T08:16:10;99468.86;;;17.17;50.00
63447;BME280;49577;49.872;6.190;2022-09-17T08:18:40;99474.77;;;16.95;50.25
63447;BME280;49577;49.872;6.190;2022-09-17T08:21:08;99472.48;;;16.99;50.39
63447;BME280;49577;49.872;6.190;2022-09-17T08:23:35;99470.53;;;17.43;50.07
63447;BME280;49577;49.872;6.190;2022-09-17T08:26:01;99469.47;;;17.81;49.74
63447;BME280;49577;49.872;6.190;2022-09-17T08:28:29;99473.45;;;18.40;48.83
63447;BME280;49577;49.872;6.190;2022-09-17T08:31:00;99470.77;;;18.88;48.36
63447;BME280;49577;49.872;6.190;2022-09-17T08:33:26;99475.89;;;18.99;47.77
63447;BME280;49577;49.872;6.190;2022-09-17T08:35:54;99478.83;;;19.08;46.94
63447;BME280;49577;49.872;6.190;2022-09-17T08:38:24;99480.38;;;18.91;46.74
63447;BME280;49577;49.872;6.190;2022-09-17T08:44:30;99481.23;;;18.22;47.83
63447;BME280;49577;49.872;6.190;2022-09-17T08:47:01;99483.52;;;18.08;48.37
63447;BME280;49577;49.872;6.190;2022-09-17T09:00:21;99490.02;;;16.13;51.83
63447;BME280;49577;49.872;6.190;2022-09-17T09:06:10;99493.31;;;15.54;52.67
63447;BME280;49577;49.872;6.190;2022-09-17T09:08:44;99489.82;;;15.41;52.39
63447;BME280;49577;49.872;6.190;2022-09-17T09:11:17;99493.01;;;16.05;51.97
63447;BME280;49577;49.872;6.190;2022-09-17T09:13:48;99490.69;;;16.87;50.85
63447;BME280;49577;49.872;6.190;2022-09-17T09:16:18;99491.36;;;18.11;49.35
63447;BME280;49577;49.872;6.190;2022-09-17T09:18:45;99489.86;;;19.28;47.27
63447;BME280;49577;49.872;6.190;2022-09-17T09:21:25;99491.34;;;19.75;46.28
63447;BME280;49577;49.872;6.190;2022-09-17T09:23:55;99485.30;;;19.89;44.66
63447;BME280;49577;49.872;6.190;2022-09-17T09:26:44;99489.85;;;20.03;43.75
63447;BME280;49577;49.872;6.190;2022-09-17T09:34:37;99488.09;;;20.40;42.24
63447;BME280;49577;49.872;6.190;2022-09-17T09:37:25;99486.93;;;21.56;41.12
63447;BME280;49577;49.872;6.190;2022-09-17T09:39:54;99480.80;;;22.38;39.61
63447;BME280;49577;49.872;6.190;2022-09-17T09:42:31;99479.08;;;23.48;37.69
63447;BME280;49577;49.872;6.190;2022-09-17T09:45:11;99479.23;;;23.97;36.93
63447;BME280;49577;49.872;6.190;2022-09-17T09:54:01;99476.75;;;22.60;37.23
63447;BME280;49577;49.872;6.190;2022-09-17T09:58:38;99480.96;;;22.83;37.29
63447;BME280;49577;49.872;6.190;2022-09-17T10:01:15;99477.42;;;23.77;35.66
63447;BME280;49577;49.872;6.190;2022-09-17T10:03:42;99472.48;;;24.53;34.03
63447;BME280;49577;49.872;6.190;2022-09-17T10:06:11;99466.79;;;24.92;33.26
63447;BME280;49577;49.872;6.190;2022-09-17T10:08:43;99463.79;;;25.33;33.55
63447;BME280;49577;49.872;6.190;2022-09-17T10:11:28;99459.15;;;25.16;33.25
63447;BME280;49577;49.872;6.190;2022-09-17T10:16:44;99456.66;;;25.22;33.11
63447;BME280;49577;49.872;6.190;2022-09-17T10:19:18;99456.52;;;25.82;32.20
63447;BME280;49577;49.872;6.190;2022-09-17T10:21:44;99459.85;;;26.33;31.24
63447;BME280;49577;49.872;6.190;2022-09-17T10:24:26;99463.79;;;26.46;31.38
63447;BME280;49577;49.872;6.190;2022-09-17T10:27:12;99466.88;;;26.01;31.52
63447;BME280;49577;49.872;6.190;2022-09-17T10:29:42;99470.11;;;25.26;32.22
63447;BME280;49577;49.872;6.190;2022-09-17T10:32:13;99474.01;;;24.20;32.85
63447;BME280;49577;49.872;6.190;2022-09-17T10:34:41;99479.11;;;23.29;34.68
63447;BME280;49577;49.872;6.190;2022-09-17T10:42:46;99476.44;;;20.93;38.23
63447;BME280;49577;49.872;6.190;2022-09-17T10:45:32;99476.61;;;21.37;38.02
63447;BME280;49577;49.872;6.190;2022-09-17T10:47:58;99476.21;;;21.59;37.20
63447;BME280;49577;49.872;6.190;2022-09-17T10:50:27;99476.02;;;21.51;36.83
63447;BME280;49577;49.872;6.190;2022-09-17T10:52:56;99476.45;;;21.32;37.87
63447;BME280;49577;49.872;6.190;2022-09-17T10:55:36;99484.89;;;20.96;38.16
63447;BME280;49577;49.872;6.190;2022-09-17T11:01:33;99480.21;;;20.81;38.77
63447;BME280;49577;49.872;6.190;2022-09-17T11:09:54;99470.55;;;24.46;33.92
63447;BME280;49577;49.872;6.190;2022-09-17T11:15:06;99464.95;;;24.47;31.88
63447;BME280;49577;49.872;6.190;2022-09-17T11:20:58;99466.98;;;22.75;34.62
63447;BME280;49577;49.872;6.190;2022-09-17T11:23:50;99473.89;;;21.68;36.38
63447;BME280;49577;49.872;6.190;2022-09-17T11:26:34;99474.50;;;20.66;38.00
63447;BME280;49577;49.872;6.190;2022-09-17T11:42:11;99480.89;;;18.51;44.70
63447;BME280;49577;49.872;6.190;2022-09-17T11:44:40;99477.42;;;18.43;45.61
63447;BME280;49577;49.872;6.190;2022-09-17T11:47:13;99465.96;;;18.45;45.14
63447;BME280;49577;49.872;6.190;2022-09-17T11:49:57;99457.09;;;19.32;44.20
63447;BME280;49577;49.872;6.190;2022-09-17T11:57:40;99449.41;;;21.91;39.87
63447;BME280;49577;49.872;6.190;2022-09-17T12:00:15;99446.68;;;22.81;38.76
63447;BME280;49577;49.872;6.190;2022-09-17T12:08:02;99439.85;;;23.45;37.07
63447;BME280;49577;49.872;6.190;2022-09-17T12:13:06;99425.60;;;24.82;33.56
63447;BME280;49577;49.872;6.190;2022-09-17T12:15:39;99427.13;;;24.11;34.18
63447;BME280;49577;49.872;6.190;2022-09-17T12:20:47;99425.26;;;22.83;34.95
63447;BME280;49577;49.872;6.190;2022-09-17T12:23:15;99421.86;;;22.18;35.40
63447;BME280;49577;49.872;6.190;2022-09-17T12:25:51;99422.35;;;21.75;36.27
63447;BME280;49577;49.872;6.190;2022-09-17T12:28:33;99423.08;;;21.38;37.23
63447;BME280;49577;49.872;6.190;2022-09-17T12:31:13;99420.81;;;21.05;37.81
63447;BME280;49577;49.872;6.190;2022-09-17T12:33:58;99420.89;;;20.62;38.01
63447;BME280;49577;49.872;6.190;2022-09-17T12:36:50;99419.44;;;20.37;38.58
63447;BME280;49577;49.872;6.190;2022-09-17T12:53:28;99421.23;;;19.02;40.40
63447;BME280;49577;49.872;6.190;2022-09-17T13:03:40;99431.68;;;18.46;42.55
63447;BME280;49577;49.872;6.190;2022-09-17T13:16:42;99442.17;;;17.40;43.66
63447;BME280;49577;49.872;6.190;2022-09-17T13:19:32;99441.81;;;17.29;44.29
63447;BME280;49577;49.872;6.190;2022-09-17T13:22:06;99438.83;;;17.12;44.07
63447;BME280;49577;49.872;6.190;2022-09-17T13:24:35;99440.73;;;16.95;44.53
63447;BME280;49577;49.872;6.190;2022-09-17T13:27:03;99444.35;;;16.86;44.91
63447;BME280;49577;49.872;6.190;2022-09-17T13:29:58;99438.20;;;16.79;45.17
63447;BME280;49577;49.872;6.190;2022-09-17T13:37:35;99434.52;;;16.88;45.56
63447;BME280;49577;49.872;6.190;2022-09-17T13:40:03;99435.85;;;16.95;45.86
63447;BME280;49577;49.872;6.190;2022-09-17T13:42:42;99431.09;;;16.90;45.68
63447;BME280;49577;49.872;6.190;2022-09-17T13:45:10;99428.55;;;16.83;45.88
63447;BME280;49577;49.872;6.190;2022-09-17T13:47:47;99428.55;;;16.81;46.41
63447;BME280;49577;49.872;6.190;2022-09-17T13:52:55;99436.55;;;16.88;46.90
63447;BME280;49577;49.872;6.190;2022-09-17T13:55:36;99439.89;;;16.92;46.44
63447;BME280;49577;49.872;6.190;2022-09-17T13:58:24;99443.20;;;16.95;46.54
63447;BME280;49577;49.872;6.190;2022-09-17T14:01:17;99439.00;;;16.95;46.63
63447;BME280;49577;49.872;6.190;2022-09-17T14:04:03;99444.66;;;16.79;47.40
63447;BME280;49577;49.872;6.190;2022-09-17T14:08:58;99445.17;;;16.58;47.59
63447;BME280;49577;49.872;6.190;2022-09-17T14:19:33;99472.23;;;16.01;50.21
63447;BME280;49577;49.872;6.190;2022-09-17T14:24:36;99465.66;;;15.65;51.99
63447;BME280;49577;49.872;6.190;2022-09-17T14:32:34;99474.80;;;14.94;55.27
63447;BME280;49577;49.872;6.190;2022-09-17T14:35:01;99468.80;;;14.97;55.61
63447;BME280;49577;49.872;6.190;2022-09-17T14:37:29;99470.30;;;15.10;56.04
63447;BME280;49577;49.872;6.190;2022-09-17T14:39:54;99464.24;;;15.23;55.68
63447;BME280;49577;49.872;6.190;2022-09-17T14:42:23;99458.16;;;15.33;55.64
63447;BME280;49577;49.872;6.190;2022-09-17T14:44:58;99461.68;;;15.41;55.27
63447;BME280;49577;49.872;6.190;2022-09-17T14:47:25;99460.40;;;15.46;55.14
63447;BME280;49577;49.872;6.190;2022-09-17T14:49:51;99467.20;;;15.36;54.01
63447;BME280;49577;49.872;6.190;2022-09-17T14:52:26;99463.02;;;15.23;53.63
63447;BME280;49577;49.872;6.190;2022-09-17T14:57:44;99460.05;;;15.23;54.01
63447;BME280;49577;49.872;6.190;2022-09-17T15:00:36;99464.41;;;15.13;54.19
63447;BME280;49577;49.872;6.190;2022-09-17T15:03:03;99461.42;;;15.07;54.30
63447;BME280;49577;49.872;6.190;2022-09-17T15:05:33;99458.61;;;15.07;54.11
63447;BME280;49577;49.872;6.190;2022-09-17T15:10:30;99461.96;;;14.99;54.63
63447;BME280;49577;49.872;6.190;2022-09-17T15:12:55;99458.46;;;14.94;54.37
63447;BME280;49577;49.872;6.190;2022-09-17T15:15:24;99457.70;;;14.86;54.65
63447;BME280;49577;49.872;6.190;2022-09-17T15:17:51;99458.70;;;14.83;54.92
63447;BME280;49577;49.872;6.190;2022-09-17T15:20:20;99451.92;;;14.82;55.03
63447;BME280;49577;49.872;6.190;2022-09-17T15:23:10;99454.47;;;14.76;54.90
63447;BME280;49577;49.872;6.190;2022-09-17T15:25:40;99452.30;;;14.64;54.89
63447;BME280;49577;49.872;6.190;2022-09-17T15:28:30;99455.91;;;14.57;55.31
63447;BME280;49577;49.872;6.190;2022-09-17T15:30:58;99455.20;;;14.53;55.41
63447;BME280;49577;49.872;6.190;2022-09-17T15:33:24;99457.20;;;14.50;55.34
63447;BME280;49577;49.872;6.190;2022-09-17T15:38:28;99459.16;;;14.40;55.14
63447;BME280;49577;49.872;6.190;2022-09-17T15:40:54;99462.52;;;14.46;55.28
63447;BME280;49577;49.872;6.190;2022-09-17T15:43:37;99464.66;;;14.55;55.19
63447;BME280;49577;49.872;6.190;2022-09-17T15:46:29;99459.59;;;14.59;54.90
63447;BME280;49577;49.872;6.190;2022-09-17T15:49:02;99456.33;;;14.64;54.99
63447;BME280;49577;49.872;6.190;2022-09-17T15:51:32;99456.30;;;14.67;54.94
63447;BME280;49577;49.872;6.190;2022-09-17T15:54:03;99459.74;;;14.70;55.16
63447;BME280;49577;49.872;6.190;2022-09-17T15:56:33;99458.94;;;14.74;55.41
63447;BME280;49577;49.872;6.190;2022-09-17T15:59:03;99461.27;;;14.73;55.07
63447;BME280;49577;49.872;6.190;2022-09-17T16:11:19;99490.66;;;14.09;59.06
63447;BME280;49577;49.872;6.190;2022-09-17T16:13:46;99489.23;;;13.91;59.37
63447;BME280;49577;49.872;6.190;2022-09-17T16:16:23;99489.23;;;13.75;60.13
63447;BME280;49577;49.872;6.190;2022-09-17T16:18:49;99496.52;;;13.65;61.03
63447;BME280;49577;49.872;6.190;2022-09-17T16:21:16;99502.31;;;13.58;61.23
63447;BME280;49577;49.872;6.190;2022-09-17T16:23:42;99511.89;;;13.50;61.76
63447;BME280;49577;49.872;6.190;2022-09-17T16:26:16;99509.89;;;13.39;61.83
63447;BME280;49577;49.872;6.190;2022-09-17T16:28:44;99512.34;;;13.23;62.38
63447;BME280;49577;49.872;6.190;2022-09-17T16:31:12;99511.02;;;13.15;63.05
63447;BME280;49577;49.872;6.190;2022-09-17T16:33:37;99512.31;;;13.09;63.29
63447;BME280;49577;49.872;6.190;2022-09-17T16:36:03;99515.36;;;13.01;63.32
63447;BME280;49577;49.872;6.190;2022-09-17T16:38:29;99516.14;;;12.96;63.45